Stations météo

réclame
Mon MeteoGroup
Melle, Belgique (6434): Température de l'air & dewpoint: 18.08.2019 00:00:00 - 24.08.2019 00:00:00 (CEST)Melle, Belgique (6434): Vitesse du vent & gusts: 18.08.2019 00:00:00 - 24.08.2019 00:00:00 (CEST)Melle, Belgique (6434): Direction du vent: 18.08.2019 00:00:00 - 24.08.2019 00:00:00 (CEST)Melle, Belgique (6434): reduced air pressure: 18.08.2019 00:00:00 - 24.08.2019 00:00:00 (CEST)Melle, Belgique (6434): Ensoleillement: 18.08.2019 00:00:00 - 24.08.2019 00:00:00 (CEST)Melle, Belgique (6434): Quantités de précipitations: 18.08.2019 00:00:00 - 24.08.2019 00:00:00 (CEST)
Date & Time tt [°C] td [°C] ff [km/h] ff [knt] fx [km/h] fx [knt] dd ppp [hPa] sd [min] rr [mm]
24.08.2019 00:00:00 14,4 12,1 0 0 8 5 N 1022,8 0 0,0
23.08.2019 23:00:00 15,4 12,8 4 2 9 5 NE 1022,8 0 0,0
23.08.2019 22:00:00 17,0 13,1 4 2 11 6 NE 1023,0 0 0,0
23.08.2019 21:00:00 21,4 12,7 8 4 17 9 NNE 1022,9 33 0,0
23.08.2019 20:00:00 24,7 11,9 11 6 16 9 NE 1022,8 60 0,0
23.08.2019 19:00:00 25,9 12,5 10 5 16 9 NE 1023,1 60 0,0
23.08.2019 18:00:00 26,4 12,3 10 6 18 10 N 1023,6 60 0,0
23.08.2019 17:00:00 26,4 12,0 10 5 16 9 ESE 1023,9 60 0,0
23.08.2019 16:00:00 25,7 11,6 5 3 18 10 E 1024,4 60 0,0
23.08.2019 15:00:00 25,7 12,2 7 4 16 9 E 1024,8 60 0,0
23.08.2019 14:00:00 25,0 11,5 7 4 13 7 ESE 1025,5 60 0,0
23.08.2019 13:00:00 23,8 13,4 6 3 11 6 ENE 1026,0 60 0,0
23.08.2019 12:00:00 21,5 13,0 4 2 12 6 N 1026,4 60 0,0
23.08.2019 11:00:00 19,7 12,3 4 2 8 4 NW 1026,5 60 0,0
23.08.2019 10:00:00 18,0 12,2 4 2 7 4 NE 1026,4 60 0,0
23.08.2019 09:00:00 13,8 11,7 0 0 3 2 N 1026,6 60 0,0
23.08.2019 08:00:00 10,3 8,8 0 0 4 2 N 1026,6 44 0,0
23.08.2019 07:00:00 7,5 6,6 4 2 4 2 WSW 1026,4 0 0,0
23.08.2019 06:00:00 7,5 6,5 4 2 4 2 W 1026,5 0 0,0
23.08.2019 05:00:00 7,9 6,8 0 0 6 3 N 1026,7 0 0,0
23.08.2019 04:00:00 8,5 7,3 4 2 4 2 S 1026,6 0 0,0
23.08.2019 03:00:00 8,9 7,6 4 2 4 2 W 1026,6 0 0,0
23.08.2019 02:00:00 9,6 8,3 0 0 5 3 N 1026,8 0 0,0
23.08.2019 01:00:00 10,6 9,0 4 2 5 3 SSE 1026,8 0 0,0
23.08.2019 00:00:00 11,5 9,6 4 2 6 3 SW 1026,6 0 0,0
22.08.2019 23:00:00 12,7 10,4 4 2 5 3 W 1026,4 0 0,0
22.08.2019 22:00:00 14,9 11,7 4 2 8 5 SSW 1026,2 0 0,0
22.08.2019 21:00:00 18,4 12,2 6 3 23 12 NE 1025,9 40 0,0
22.08.2019 20:00:00 21,2 12,5 14 8 24 13 NNE 1025,4 60 0,0
22.08.2019 19:00:00 24,5 8,3 6 4 17 9 NW 1024,9 60 0,0
22.08.2019 18:00:00 24,7 7,6 9 5 21 11 W 1025,1 60 0,0
22.08.2019 17:00:00 24,6 8,2 13 7 23 12 W 1025,3 60 0,0
22.08.2019 16:00:00 24,1 8,7 11 6 24 13 WSW 1025,3 60 0,0
22.08.2019 15:00:00 23,4 10,4 8 4 25 13 WSW 1025,9 60 0,0
22.08.2019 14:00:00 22,9 10,7 11 6 22 12 WSW 1026,1 60 0,0
22.08.2019 13:00:00 21,5 11,2 11 6 18 10 WSW 1026,5 60 0,0
22.08.2019 12:00:00 20,1 12,1 8 4 14 7 WSW 1026,7 60 0,0
22.08.2019 11:00:00 18,6 11,9 6 3 14 8 W 1026,5 60 0,0
22.08.2019 10:00:00 16,8 11,7 6 3 12 7 W 1026,5 60 0,0
22.08.2019 09:00:00 13,9 11,0 6 4 10 6 W 1026,3 60 0,0
22.08.2019 08:00:00 10,2 9,0 4 2 8 4 W 1026,1 46 0,0
22.08.2019 07:00:00 7,4 6,3 0 0 4 2 N 1025,5 0 0,0
22.08.2019 06:00:00 7,7 6,4 0 0 2 1 N 1025,4 0 0,0
22.08.2019 05:00:00 8,1 6,9 0 0 3 2 N 1025,6 0 0,0
22.08.2019 04:00:00 8,7 7,4 4 2 4 2 SSW 1025,9 0 0,0
22.08.2019 03:00:00 9,4 8,0 4 2 6 3 W 1026,0 0 0,0
22.08.2019 02:00:00 9,5 8,0 0 0 2 1 N 1026,2 0 0,0
22.08.2019 01:00:00 10,4 8,7 0 0 2 1 N 1026,6 0 0,0
22.08.2019 00:00:00 11,2 9,1 0 0 3 1 N 1026,7 0 0,0
21.08.2019 23:00:00 12,5 10,0 4 2 5 3 S 1026,7 0 0,0
21.08.2019 22:00:00 14,2 10,5 4 2 5 3 SSW 1026,8 0 0,0
21.08.2019 21:00:00 17,3 11,1 4 2 8 5 ESE 1026,3 42 0,0
21.08.2019 20:00:00 21,4 8,8 7 4 10 5 ENE 1026,2 60 0,0
21.08.2019 19:00:00 22,4 8,9 5 3 13 7 ESE 1026,3 60 0,0
21.08.2019 18:00:00 22,6 7,8 5 3 18 10 E 1026,7 60 0,0
21.08.2019 17:00:00 22,6 8,0 5 3 12 6 E 1027,0 60 0,0
21.08.2019 16:00:00 22,4 7,2 4 2 13 7 NW 1027,5 60 0,0
21.08.2019 15:00:00 21,7 8,2 5 3 13 7 WSW 1027,8 60 0,0
21.08.2019 14:00:00 21,3 8,1 11 6 24 13 E 1028,3 60 0,0
21.08.2019 13:00:00 20,4 9,9 8 4 16 9 S 1028,8 60 0,0
21.08.2019 12:00:00 19,3 9,7 8 5 18 10 SSW 1029,1 60 0,0
21.08.2019 11:00:00 17,8 11,4 10 6 17 9 SW 1029,2 60 0,0
21.08.2019 10:00:00 16,0 12,7 8 4 13 7 WSW 1029,3 60 0,0
21.08.2019 09:00:00 13,7 11,5 7 4 10 6 SW 1029,2 60 0,0
21.08.2019 08:00:00 11,1 9,7 0 0 9 5 N 1028,8 34 0,0
21.08.2019 07:00:00 10,1 8,8 8 4 10 5 SSW 1028,4 0 0,0
21.08.2019 06:00:00 10,5 9,2 6 4 9 5 S 1028,1 0 0,0
21.08.2019 05:00:00 9,9 8,3 6 3 8 4 SSW 1028,0 0 0,0
21.08.2019 04:00:00 10,4 8,4 5 3 9 5 SSW 1027,9 0 0,0
21.08.2019 03:00:00 11,2 8,9 5 3 10 6 SW 1027,9 0 0,0
21.08.2019 02:00:00 11,8 8,9 4 2 10 5 SW 1027,9 0 0,0
21.08.2019 01:00:00 11,5 9,2 8 4 10 6 WSW 1027,7 0 0,0
21.08.2019 00:00:00 11,2 9,4 7 4 9 5 WSW 1027,5 0 0,0
20.08.2019 23:00:00 11,8 9,5 4 2 7 4 WSW 1027,2 0 0,0
20.08.2019 22:00:00 13,2 10,1 4 2 11 6 SW 1026,7 0 0,0
20.08.2019 21:00:00 17,3 9,9 9 5 23 12 NNW 1026,0 31 0,0
20.08.2019 20:00:00 19,7 9,5 11 6 23 13 NW 1025,4 40 0,0
20.08.2019 19:00:00 20,5 9,8 9 5 26 14 WNW 1024,8 48 0,0
20.08.2019 18:00:00 20,0 10,3 10 5 21 11 W 1024,5 6 0,0
20.08.2019 17:00:00 21,1 10,6 10 5 22 12 W 1024,0 54 0,0
20.08.2019 16:00:00 21,3 9,6 10 5 28 15 WNW 1023,8 60 0,0
20.08.2019 15:00:00 21,0 8,5 16 8 29 16 W 1023,4 60 0,0
20.08.2019 14:00:00 19,6 10,8 14 8 34 19 W 1023,6 44 0,0
20.08.2019 13:00:00 19,6 11,1 11 6 29 16 W 1023,3 30 0,0
20.08.2019 12:00:00 18,7 12,0 10 6 24 13 WNW 1023,1 51 0,0
20.08.2019 11:00:00 17,4 12,2 14 8 23 13 WSW 1023,0 60 0,0
20.08.2019 10:00:00 16,5 12,9 11 6 22 12 SW 1022,9 60 0,0
20.08.2019 09:00:00 14,5 11,9 11 6 19 10 SW 1022,5 60 0,0
20.08.2019 08:00:00 13,0 11,1 11 6 19 10 SW 1022,1 35 0,0
20.08.2019 07:00:00 12,0 10,3 11 6 16 9 SW 1021,4 0 0,0
20.08.2019 06:00:00 12,1 10,4 10 6 14 8 SW 1021,0 0 0,0
20.08.2019 05:00:00 12,4 10,5 9 5 15 8 SW 1021,0 0 0,0
20.08.2019 04:00:00 12,8 10,6 10 5 18 10 SW 1020,9 0 0,0
20.08.2019 03:00:00 13,0 10,6 10 6 16 9 SW 1020,8 0 0,0
20.08.2019 02:00:00 13,5 10,5 11 6 19 10 SW 1020,7 0 0,0
20.08.2019 01:00:00 13,8 9,9 10 5 17 9 SW 1020,4 0 0,0
20.08.2019 00:00:00 14,3 9,6 11 6 20 11 WSW 1020,1 0 0,0
19.08.2019 23:00:00 14,8 9,0 10 5 20 11 SW 1019,8 0 0,0
19.08.2019 22:00:00 15,5 8,8 9 5 21 11 SW 1019,6 0 0,0
19.08.2019 21:00:00 17,2 8,7 10 6 29 15 WSW 1019,0 29 0,0
19.08.2019 20:00:00 19,3 8,5 18 10 37 20 WSW 1018,5 60 0,0
19.08.2019 19:00:00 20,3 8,5 24 13 38 21 W 1018,1 55 0,0
19.08.2019 18:00:00 21,1 10,1 19 10 42 23 WSW 1017,7 60 0,0
19.08.2019 17:00:00 20,5 10,1 23 12 43 23 WSW 1017,7 60 0,0
19.08.2019 16:00:00 20,4 10,0 21 11 48 26 W 1017,6 59 0,0
19.08.2019 15:00:00 20,7 10,1 21 11 40 22 WSW 1017,1 52 0,0
19.08.2019 14:00:00 19,9 10,6 18 10 - - WSW 1016,8 42 0,0
19.08.2019 13:00:00 18,7 11,5 19 10 39 21 WSW 1016,5 14 0,0
19.08.2019 12:00:00 18,9 12,3 21 11 39 21 WSW 1016,2 58 0,0
19.08.2019 11:00:00 17,5 12,2 16 9 34 18 WSW 1015,8 60 0,0
19.08.2019 10:00:00 16,6 12,2 18 10 33 18 SW 1015,4 60 0,0
19.08.2019 09:00:00 14,7 11,5 15 8 26 14 SSW 1015,1 60 0,0
19.08.2019 08:00:00 13,3 10,8 14 8 24 13 SW 1014,9 38 0,0
19.08.2019 07:00:00 12,9 10,7 13 7 23 13 SW 1014,4 0 0,0
19.08.2019 06:00:00 13,2 10,9 11 6 26 14 SW 1013,9 0 0,0
19.08.2019 05:00:00 13,5 11,2 12 7 21 11 SW 1013,3 0 0,0
19.08.2019 04:00:00 13,1 11,0 9 5 18 10 SW 1013,1 0 0,0
19.08.2019 03:00:00 13,8 11,0 11 6 20 11 SW 1013,1 0 0,0
19.08.2019 02:00:00 13,8 10,7 11 6 24 13 SW 1012,8 0 0,0
19.08.2019 01:00:00 13,8 10,1 11 6 19 11 WSW 1012,4 0 0,0
19.08.2019 00:00:00 14,3 9,2 11 6 28 15 SW 1011,9 0 0,0
18.08.2019 23:00:00 15,4 8,5 14 8 25 14 WSW 1011,3 0 0,0
18.08.2019 22:00:00 16,2 9,2 15 8 26 14 WSW 1010,7 0 0,0
18.08.2019 21:00:00 17,4 9,9 13 7 29 16 WSW 1010,2 49 0,0
18.08.2019 20:00:00 18,9 9,8 18 10 38 20 W 1009,9 59 0,0
18.08.2019 19:00:00 20,4 8,6 22 12 41 22 WSW 1009,0 57 0,0
18.08.2019 18:00:00 21,0 12,1 19 10 40 22 WSW 1008,4 56 0,0
18.08.2019 17:00:00 20,9 13,7 17 9 34 19 W 1008,0 48 0,0
18.08.2019 16:00:00 19,9 14,6 14 8 26 14 W 1007,5 40 0,0
18.08.2019 15:00:00 18,2 14,7 14 8 24 13 WSW 1007,3 1 0,0
18.08.2019 14:00:00 18,1 15,4 14 8 22 12 W 1006,3 9 0,0
18.08.2019 13:00:00 16,4 14,7 8 4 16 9 W 1005,7 0 0,0
18.08.2019 12:00:00 16,2 14,6 7 4 12 7 WSW 1005,1 0 0,1
18.08.2019 11:00:00 15,5 14,4 5 3 9 5 W 1004,8 0 0,5
18.08.2019 10:00:00 15,5 14,4 4 2 8 4 E 1004,0 0 2,0
18.08.2019 09:00:00 15,2 13,9 4 2 10 6 SSW 1004,5 0 2,1
18.08.2019 08:00:00 15,3 14,0 4 2 15 8 S 1004,8 0 0,7
18.08.2019 07:00:00 15,3 13,9 8 5 14 8 SW 1005,7 0 0,9
18.08.2019 06:00:00 15,5 14,0 9 5 16 8 SSW 1006,3 0 0,2
18.08.2019 05:00:00 15,5 13,8 10 5 16 9 SSW 1006,7 0 0,0
18.08.2019 04:00:00 15,6 13,8 8 4 16 8 SSW 1007,2 0 0,2
18.08.2019 03:00:00 15,8 13,7 8 4 14 7 SSW 1007,6 0 0,0
18.08.2019 02:00:00 15,9 13,5 7 4 12 7 SW 1008,0 0 0,0
18.08.2019 01:00:00 16,3 13,7 8 4 17 9 SW 1007,9 0 0,0
18.08.2019 00:00:00 16,4 14,8 8 4 14 7 WSW 1008,1 0 0,0

tt = Température de l'air
td = dewpoint
ff = Vitesse du vent
fx = gusts
dd = Direction du vent
ppp = reduced air pressure
sd = Ensoleillement
rr = Quantités de précipitations

stations d'obs. à proximité